createdAt,value
2022-09-16T00:00:39.724Z,13.25
2022-09-16T00:15:23.248Z,13.40
2022-09-16T00:30:28.189Z,13.38
2022-09-16T00:45:23.276Z,13.25
2022-09-16T01:00:25.549Z,13.20
2022-09-16T01:15:23.335Z,13.15
2022-09-16T01:30:23.441Z,13.00
2022-09-16T01:45:23.182Z,13.00
2022-09-16T02:00:27.689Z,12.90
2022-09-16T02:15:23.359Z,13.03
2022-09-16T02:30:23.367Z,13.10
2022-09-16T02:45:23.526Z,12.73
2022-09-16T03:00:24.984Z,12.60
2022-09-16T03:15:23.304Z,12.77
2022-09-16T03:30:23.289Z,12.60
2022-09-16T03:45:23.464Z,12.58
2022-09-16T04:00:34.324Z,12.73
2022-09-16T04:15:23.381Z,12.68
2022-09-16T04:30:23.653Z,12.65
2022-09-16T04:45:23.657Z,12.65
2022-09-16T05:00:23.633Z,12.73
2022-09-16T05:15:23.524Z,12.77
2022-09-16T05:30:25.971Z,12.80
2022-09-16T05:45:27.674Z,12.95
2022-09-16T06:00:59.671Z,13.03
2022-09-16T06:15:24.109Z,13.27
2022-09-16T06:30:38.368Z,13.18
2022-09-16T06:45:23.739Z,13.27
2022-09-16T07:00:26.069Z,13.25
2022-09-16T07:15:23.694Z,13.35
2022-09-16T07:30:24.021Z,13.20
2022-09-16T07:45:23.741Z,13.37
2022-09-16T08:00:26.829Z,13.35
2022-09-16T08:15:33.072Z,13.32
2022-09-16T08:30:33.512Z,13.33
2022-09-16T08:45:32.955Z,13.17
2022-09-16T09:00:43.014Z,13.40
2022-09-16T09:15:27.480Z,13.43
2022-09-16T09:30:29.660Z,13.60
2022-09-16T09:45:22.666Z,13.60
2022-09-16T10:00:33.404Z,13.70
2022-09-16T10:15:23.287Z,13.97
2022-09-16T10:30:24.034Z,14.12
2022-09-16T10:45:23.131Z,14.43
2022-09-16T11:00:31.622Z,14.25
2022-09-16T11:15:23.416Z,14.27
2022-09-16T11:30:23.203Z,14.30
2022-09-16T11:45:23.119Z,14.43
2022-09-16T12:00:25.712Z,14.77
2022-09-16T12:15:23.265Z,15.00
2022-09-16T12:30:25.522Z,15.13
2022-09-16T12:45:22.955Z,15.57
2022-09-16T13:00:23.522Z,15.47
2022-09-16T13:15:23.257Z,15.37
2022-09-16T13:30:23.384Z,15.23
2022-09-16T13:45:23.223Z,15.97
2022-09-16T14:00:25.419Z,16.20
2022-09-16T14:15:23.395Z,16.10
2022-09-16T14:30:23.385Z,16.10
2022-09-16T14:45:23.272Z,16.12
2022-09-16T15:00:32.130Z,16.20
2022-09-16T15:18:00.271Z,17.50
2022-09-16T15:31:43.293Z,16.00
2022-09-16T15:46:44.132Z,16.40
2022-09-16T16:01:44.356Z,16.83
2022-09-16T16:15:24.215Z,16.52
2022-09-16T16:30:27.695Z,15.70
2022-09-16T16:45:23.754Z,16.23
2022-09-16T17:00:59.488Z,15.80
2022-09-16T17:15:24.282Z,15.80
2022-09-16T17:30:29.375Z,15.23
2022-09-16T17:45:23.670Z,14.88
2022-09-16T18:00:23.794Z,14.53
2022-09-16T18:15:23.740Z,13.95
2022-09-16T18:30:25.801Z,13.80
2022-09-16T18:45:23.804Z,13.77
2022-09-16T19:00:36.532Z,13.90
2022-09-16T19:15:23.802Z,13.77
2022-09-16T19:30:31.327Z,13.88
2022-09-16T19:45:27.722Z,13.80
2022-09-16T20:00:55.300Z,13.50
2022-09-16T20:15:24.135Z,13.57
2022-09-16T20:30:25.201Z,13.55
2022-09-16T20:45:23.937Z,13.20
2022-09-16T21:00:28.622Z,13.25
2022-09-16T21:15:24.357Z,13.10
2022-09-16T21:30:23.977Z,12.87
2022-09-16T21:45:33.057Z,12.60
2022-09-16T22:00:59.986Z,13.50
2022-09-16T22:15:22.956Z,12.47
2022-09-16T22:30:26.351Z,12.23
2022-09-16T22:45:23.185Z,12.18
2022-09-16T23:00:23.231Z,11.83
2022-09-16T23:15:23.173Z,11.53
2022-09-16T23:30:23.411Z,11.45
2022-09-16T23:45:22.973Z,11.27
